Time;durP1;ratioP1;P1;durP2;ratioP2;P2;SDS_P1;SDS_P2;PMS_P1;PMS_P2;Temp;Humidity;BMP_temperature;BMP_pressure;BME280_temperature;BME280_humidity;BME280_pressure;Samples;Min_cycle;Max_cycle;Signal;HPM_P1;HPM_P2
2022/03/05 00:00:16;;;;;;;16.27;11.32;;;7.50;83.10;;;;;;5092109;28;20077;-71
2022/03/05 00:02:42;;;;;;;15.63;11.38;;;7.50;82.70;;;;;;5093284;28;20025;-69
2022/03/05 00:05:10;;;;;;;14.75;11.65;;;7.50;83.10;;;;;;5093305;28;20028;-64
2022/03/05 00:07:35;;;;;;;14.52;11.38;;;7.40;82.20;;;;;;5093251;28;20028;-65
2022/03/05 00:10:02;;;;;;;14.15;10.75;;;7.50;82.80;;;;;;5091565;28;20131;-67
2022/03/05 00:12:27;;;;;;;13.98;10.40;;;7.50;81.90;;;;;;5093331;28;20020;-69
2022/03/05 00:14:53;;;;;;;18.08;11.18;;;7.50;81.70;;;;;;5093158;28;20465;-66
2022/03/05 00:17:19;;;;;;;15.73;11.43;;;7.40;81.10;;;;;;5093217;28;20521;-66
2022/03/05 00:19:44;;;;;;;15.10;10.65;;;7.30;81.70;;;;;;5093050;28;20107;-68
2022/03/05 00:22:10;;;;;;;13.82;10.90;;;7.20;81.60;;;;;;5092977;28;20624;-66
2022/03/05 00:24:36;;;;;;;16.88;11.25;;;7.30;82.10;;;;;;5093150;28;20488;-64
2022/03/05 00:27:04;;;;;;;16.27;10.82;;;7.20;82.00;;;;;;5093010;28;20096;-69
2022/03/05 00:29:30;;;;;;;14.95;10.68;;;7.20;81.70;;;;;;5092801;28;20067;-65
2022/03/05 00:31:56;;;;;;;14.75;10.73;;;7.20;81.50;;;;;;5093056;28;20048;-65
2022/03/05 00:34:22;;;;;;;15.07;10.35;;;7.30;81.60;;;;;;5092826;28;20024;-65
2022/03/05 00:36:48;;;;;;;15.18;10.05;;;7.30;81.70;;;;;;5092675;28;20020;-68
2022/03/05 00:39:13;;;;;;;13.93;9.70;;;7.40;81.60;;;;;;5092762;28;20026;-71
2022/03/05 00:41:39;;;;;;;12.30;9.48;;;7.30;80.60;;;;;;5092694;28;20119;-70
2022/03/05 00:44:05;;;;;;;13.80;8.95;;;7.30;80.00;;;;;;5092657;28;20488;-71
2022/03/05 00:46:30;;;;;;;16.00;9.38;;;7.20;79.10;;;;;;5092709;28;20020;-71
2022/03/05 00:48:56;;;;;;;12.57;9.60;;;7.20;79.00;;;;;;5094233;28;20484;-75
2022/03/05 00:51:22;;;;;;;13.55;9.27;;;7.20;79.10;;;;;;5097201;28;20020;-73
2022/03/05 00:53:48;;;;;;;13.90;9.43;;;7.10;78.50;;;;;;5097036;28;20028;-73
2022/03/05 00:56:13;;;;;;;11.75;8.60;;;7.00;78.90;;;;;;5097132;28;20335;-76
2022/03/05 00:58:39;;;;;;;13.38;8.95;;;7.10;78.80;;;;;;5096739;28;20054;-72
2022/03/05 01:01:05;;;;;;;14.35;8.40;;;7.10;78.30;;;;;;5096662;28;20024;-68
2022/03/05 01:03:31;;;;;;;15.27;8.93;;;7.10;78.30;;;;;;5096750;28;20035;-69
2022/03/05 01:05:57;;;;;;;12.85;8.68;;;7.10;77.60;;;;;;5096799;28;20032;-74
2022/03/05 01:08:23;;;;;;;12.50;8.88;;;7.10;78.00;;;;;;5096384;28;20083;-74
2022/03/05 01:10:48;;;;;;;14.05;9.85;;;7.10;77.80;;;;;;5096844;28;20055;-74
2022/03/05 01:13:14;;;;;;;12.80;9.00;;;7.10;78.10;;;;;;5096512;28;20093;-74
2022/03/05 01:15:40;;;;;;;12.50;8.52;;;7.10;77.80;;;;;;5096569;28;20452;-68
2022/03/05 01:18:06;;;;;;;11.65;8.20;;;7.10;76.90;;;;;;5096429;28;20022;-65
2022/03/05 01:20:32;;;;;;;15.45;8.80;;;7.00;76.70;;;;;;5094974;28;20016;-67
2022/03/05 01:22:57;;;;;;;12.00;8.77;;;7.00;77.40;;;;;;5096404;28;20534;-68
2022/03/05 01:25:23;;;;;;;12.57;8.70;;;7.00;77.10;;;;;;5096555;28;20015;-68
2022/03/05 01:27:49;;;;;;;14.07;9.27;;;7.10;77.00;;;;;;5096194;28;20032;-69
2022/03/05 01:30:14;;;;;;;12.45;8.80;;;7.10;77.10;;;;;;5096173;28;20092;-68
2022/03/05 01:32:40;;;;;;;13.07;8.27;;;7.10;76.60;;;;;;5096219;28;20020;-65
2022/03/05 01:35:06;;;;;;;11.90;8.52;;;7.10;76.30;;;;;;5096183;28;20020;-66
2022/03/05 01:37:32;;;;;;;11.68;8.32;;;7.00;76.20;;;;;;5096109;28;20024;-66
2022/03/05 01:39:58;;;;;;;14.63;8.90;;;7.10;76.30;;;;;;5096012;28;20024;-64
2022/03/05 01:42:24;;;;;;;15.73;8.90;;;7.00;75.60;;;;;;5095975;28;20028;-66
2022/03/05 01:44:50;;;;;;;10.32;7.95;;;6.90;75.60;;;;;;5095976;28;20085;-65
2022/03/05 01:47:16;;;;;;;14.57;8.95;;;6.90;75.80;;;;;;5095937;28;20020;-66
2022/03/05 01:49:42;;;;;;;13.32;8.68;;;7.00;76.20;;;;;;5095774;28;20036;-66
2022/03/05 01:52:08;;;;;;;11.43;8.07;;;7.10;76.10;;;;;;5095770;28;20024;-65
2022/03/05 01:54:33;;;;;;;12.15;8.85;;;7.20;75.70;;;;;;5095894;28;20028;-66
2022/03/05 01:57:00;;;;;;;13.25;8.48;;;7.20;75.10;;;;;;5095751;28;20024;-65
2022/03/05 01:59:26;;;;;;;11.60;8.30;;;7.30;74.90;;;;;;5095485;28;20128;-65
2022/03/05 02:01:52;;;;;;;12.52;8.05;;;7.30;75.00;;;;;;5094709;28;20392;-66
2022/03/05 02:04:18;;;;;;;12.15;8.00;;;7.30;74.80;;;;;;5095479;28;20028;-65
2022/03/05 02:06:44;;;;;;;10.70;7.93;;;7.40;74.70;;;;;;5095466;28;20499;-65
2022/03/05 02:09:10;;;;;;;12.63;8.25;;;7.50;74.20;;;;;;5095153;28;20052;-65
2022/03/05 02:11:36;;;;;;;10.85;7.38;;;7.40;73.70;;;;;;5095541;28;20047;-65
2022/03/05 02:14:02;;;;;;;13.35;8.75;;;7.40;73.20;;;;;;5095436;28;20111;-65
2022/03/05 02:16:29;;;;;;;10.55;7.47;;;7.30;73.10;;;;;;5095358;28;20031;-66
2022/03/05 02:18:55;;;;;;;10.48;7.60;;;7.30;74.10;;;;;;5095104;28;20110;-66
2022/03/05 02:21:23;;;;;;;11.00;8.32;;;7.30;73.50;;;;;;5095533;28;20028;-66
2022/03/05 02:23:49;;;;;;;11.63;7.85;;;7.30;73.10;;;;;;5094153;28;20016;-67
2022/03/05 02:26:16;;;;;;;12.45;8.20;;;7.30;73.50;;;;;;5095061;28;20133;-72
2022/03/05 02:28:42;;;;;;;13.60;8.43;;;7.30;73.60;;;;;;5094785;28;20354;-73
2022/03/05 02:31:08;;;;;;;11.70;7.00;;;7.30;73.50;;;;;;5094631;28;20058;-73
2022/03/05 02:33:34;;;;;;;10.60;7.13;;;7.30;73.90;;;;;;5093734;28;20024;-72
2022/03/05 02:36:01;;;;;;;10.35;7.63;;;7.30;73.60;;;;;;5095003;28;20031;-73
2022/03/05 02:38:27;;;;;;;12.07;7.45;;;7.40;72.90;;;;;;5094683;28;20024;-71
2022/03/05 02:40:53;;;;;;;10.10;7.45;;;7.30;72.70;;;;;;5094715;28;20090;-70
2022/03/05 02:43:21;;;;;;;10.63;7.13;;;7.30;72.80;;;;;;5094635;28;20024;-68
2022/03/05 02:45:48;;;;;;;10.23;7.50;;;7.30;73.10;;;;;;5094797;28;20020;-68
2022/03/05 02:48:15;;;;;;;12.25;7.00;;;7.30;73.10;;;;;;5094702;28;20093;-73
2022/03/05 02:50:43;;;;;;;11.05;7.15;;;7.30;72.80;;;;;;5093258;28;20040;-73
2022/03/05 02:53:09;;;;;;;10.38;7.70;;;7.30;72.80;;;;;;5094509;28;20044;-74
2022/03/05 02:55:35;;;;;;;11.70;7.10;;;7.30;72.50;;;;;;5094505;28;20054;-74
2022/03/05 02:58:02;;;;;;;9.27;6.68;;;7.20;73.40;;;;;;5094445;28;20024;-71
2022/03/05 03:00:28;;;;;;;10.50;6.80;;;7.30;73.90;;;;;;5094492;28;20468;-66
2022/03/05 03:02:54;;;;;;;11.93;7.15;;;7.30;74.10;;;;;;5094515;28;20106;-66
2022/03/05 03:05:19;;;;;;;11.68;7.10;;;7.40;73.20;;;;;;5094500;28;20020;-68
2022/03/05 03:07:45;;;;;;;10.90;6.82;;;7.40;73.00;;;;;;5094731;28;20377;-65
2022/03/05 03:10:12;;;;;;;9.43;6.65;;;7.40;73.60;;;;;;5093904;28;20043;-66
2022/03/05 03:12:39;;;;;;;10.80;7.10;;;7.40;73.20;;;;;;5093689;28;20468;-65
2022/03/05 03:15:06;;;;;;;10.43;6.97;;;7.30;73.20;;;;;;5094214;28;20471;-66
2022/03/05 03:17:46;;;;;;;9.45;6.65;;;7.40;73.60;;;;;;5094054;28;20039;-65
2022/03/05 03:20:15;;;;;;;11.20;6.93;;;7.40;74.00;;;;;;5094066;28;20028;-69
2022/03/05 03:22:40;;;;;;;8.65;6.70;;;7.40;73.70;;;;;;5094072;28;20031;-66
2022/03/05 03:25:07;;;;;;;11.10;6.32;;;7.30;74.10;;;;;;5093992;28;20024;-66
2022/03/05 03:27:34;;;;;;;9.05;6.45;;;7.30;74.50;;;;;;5094017;28;20088;-65
2022/03/05 03:30:00;;;;;;;9.68;6.95;;;7.30;74.70;;;;;;5093676;28;20384;-65
2022/03/05 03:32:27;;;;;;;8.95;6.40;;;7.30;74.80;;;;;;5092609;28;20077;-65
2022/03/05 03:34:53;;;;;;;9.57;6.57;;;7.40;74.80;;;;;;5093889;28;20020;-65
2022/03/05 03:37:19;;;;;;;9.65;6.25;;;7.40;74.50;;;;;;5093727;28;20020;-64
2022/03/05 03:39:44;;;;;;;10.43;5.95;;;7.40;74.30;;;;;;5093564;28;20028;-65
2022/03/05 03:42:10;;;;;;;11.05;7.00;;;7.40;74.50;;;;;;5093464;28;20024;-67
2022/03/05 03:44:36;;;;;;;9.68;6.72;;;7.30;74.00;;;;;;5093599;28;20102;-65
2022/03/05 03:47:04;;;;;;;9.07;6.90;;;7.20;74.50;;;;;;5093582;28;20545;-66
2022/03/05 03:49:30;;;;;;;10.73;6.85;;;7.20;74.50;;;;;;5093614;28;20028;-65
2022/03/05 03:51:56;;;;;;;9.65;6.35;;;7.20;74.80;;;;;;5093528;28;20498;-64
2022/03/05 03:54:21;;;;;;;9.57;7.03;;;7.10;74.60;;;;;;5093515;28;20397;-69
2022/03/05 03:56:48;;;;;;;9.23;6.05;;;7.10;75.10;;;;;;5093496;28;20028;-65
2022/03/05 03:59:14;;;;;;;10.38;6.10;;;7.10;74.90;;;;;;5093303;28;20426;-64
2022/03/05 04:01:39;;;;;;;10.65;6.53;;;7.00;75.10;;;;;;5093354;28;20030;-65
2022/03/05 04:04:05;;;;;;;9.32;6.43;;;6.90;75.30;;;;;;5093354;28;20021;-67
2022/03/05 04:08:41;;;;;;;10.05;6.53;;;6.90;75.90;;;;;;5093142;28;20184;-65
2022/03/05 04:09:16;;;;;;;9.20;6.38;;;6.90;76.10;;;;;;5092811;28;20498;-65
2022/03/05 04:11:42;;;;;;;10.07;6.80;;;6.90;75.80;;;;;;5093206;28;20182;-65
2022/03/05 04:14:08;;;;;;;8.20;5.95;;;6.80;75.80;;;;;;5093500;28;20381;-64
2022/03/05 04:16:34;;;;;;;10.00;6.15;;;6.90;75.90;;;;;;5093214;28;20123;-72
2022/03/05 04:18:59;;;;;;;9.23;6.03;;;6.90;76.20;;;;;;5092797;28;20381;-69
2022/03/05 04:21:25;;;;;;;9.43;6.30;;;6.90;75.60;;;;;;5092997;28;20020;-74
2022/03/05 04:23:51;;;;;;;8.38;6.07;;;6.90;75.50;;;;;;5091780;28;20107;-70
2022/03/05 04:26:16;;;;;;;9.32;6.32;;;6.90;75.50;;;;;;5092571;28;20036;-70
2022/03/05 04:28:42;;;;;;;8.88;6.40;;;6.90;75.10;;;;;;5092598;28;20024;-71
2022/03/05 04:31:08;;;;;;;11.80;7.22;;;6.90;75.70;;;;;;5092593;28;20055;-71
2022/03/05 04:33:33;;;;;;;11.55;6.45;;;6.90;75.10;;;;;;5092893;28;20424;-68
2022/03/05 04:35:59;;;;;;;9.25;6.10;;;6.80;75.60;;;;;;5092630;28;20032;-67
2022/03/05 04:38:25;;;;;;;9.95;7.07;;;6.90;75.70;;;;;;5092593;28;20103;-71
2022/03/05 04:40:51;;;;;;;9.57;6.35;;;6.90;75.70;;;;;;5092642;28;20033;-72
2022/03/05 04:43:16;;;;;;;10.20;7.00;;;6.90;76.00;;;;;;5092760;28;20032;-67
2022/03/05 04:45:42;;;;;;;11.15;6.75;;;6.90;75.80;;;;;;5092540;28;20055;-70
2022/03/05 04:48:08;;;;;;;10.70;6.90;;;6.90;75.60;;;;;;5092338;28;20028;-66
2022/03/05 04:50:34;;;;;;;9.48;6.20;;;6.90;76.10;;;;;;5092589;28;20043;-69
2022/03/05 04:53:00;;;;;;;9.77;6.57;;;6.90;75.80;;;;;;5092494;28;20103;-69
2022/03/05 04:55:26;;;;;;;10.13;6.30;;;7.00;75.80;;;;;;5092736;28;20039;-67
2022/03/05 04:57:51;;;;;;;9.75;6.53;;;7.10;75.90;;;;;;5092708;28;20036;-65
2022/03/05 05:00:17;;;;;;;12.60;6.40;;;7.10;75.60;;;;;;5092915;28;20054;-68
2022/03/05 05:02:43;;;;;;;8.85;6.05;;;7.10;75.60;;;;;;5092856;28;20115;-66
2022/03/05 05:05:08;;;;;;;11.13;6.55;;;7.10;75.60;;;;;;5092492;28;20073;-65
2022/03/05 05:07:34;;;;;;;9.48;6.30;;;7.10;75.60;;;;;;5092430;28;20099;-66
2022/03/05 05:10:00;;;;;;;8.70;6.15;;;7.10;75.50;;;;;;5092353;28;20048;-65
2022/03/05 05:12:25;;;;;;;9.43;6.30;;;7.10;75.60;;;;;;5092628;28;20058;-66
2022/03/05 05:14:51;;;;;;;10.88;6.40;;;7.10;75.70;;;;;;5092422;28;20031;-66
2022/03/05 05:17:17;;;;;;;9.70;6.57;;;7.10;76.20;;;;;;5092370;28;20462;-65
2022/03/05 05:19:42;;;;;;;10.00;6.57;;;7.10;75.40;;;;;;5092263;28;20028;-69
2022/03/05 05:22:08;;;;;;;14.25;6.90;;;7.20;75.80;;;;;;5092347;28;20057;-67
2022/03/05 05:24:35;;;;;;;10.55;6.05;;;7.30;75.70;;;;;;5092431;28;20024;-67
2022/03/05 05:27:02;;;;;;;9.48;6.25;;;7.30;75.10;;;;;;5092373;28;20048;-70
2022/03/05 05:29:28;;;;;;;10.38;6.57;;;7.20;75.30;;;;;;5092175;28;20039;-65
2022/03/05 05:31:55;;;;;;;11.77;6.72;;;7.30;75.50;;;;;;5092379;28;20017;-65
2022/03/05 05:34:21;;;;;;;11.80;7.63;;;7.30;75.30;;;;;;5093246;28;20051;-67
2022/03/05 05:36:47;;;;;;;11.07;6.88;;;7.30;75.40;;;;;;5096198;28;20024;-65
2022/03/05 05:39:13;;;;;;;9.82;5.97;;;7.30;75.30;;;;;;5096018;28;20073;-66
2022/03/05 05:41:40;;;;;;;9.90;6.03;;;7.30;75.30;;;;;;5095972;28;20024;-66
2022/03/05 05:44:07;;;;;;;8.55;5.95;;;7.30;75.40;;;;;;5095893;28;20020;-71
2022/03/05 05:46:35;;;;;;;10.07;6.00;;;7.20;75.10;;;;;;5095890;28;20074;-73
2022/03/05 05:49:01;;;;;;;8.55;5.88;;;7.30;74.70;;;;;;5095798;28;20099;-72
2022/03/05 05:51:28;;;;;;;9.23;6.22;;;7.30;74.40;;;;;;5095696;28;20124;-66
2022/03/05 05:53:55;;;;;;;9.50;5.82;;;7.30;74.10;;;;;;5095615;28;20016;-66
2022/03/05 05:56:20;;;;;;;8.88;5.68;;;7.30;73.60;;;;;;5095584;28;20028;-65
2022/03/05 05:58:48;;;;;;;8.23;5.88;;;7.30;72.60;;;;;;5095520;28;20043;-66
2022/03/05 06:01:14;;;;;;;9.98;5.63;;;7.30;72.70;;;;;;5095648;28;20034;-70
2022/03/05 06:03:40;;;;;;;9.35;5.65;;;7.30;72.10;;;;;;5095737;28;20123;-73
2022/03/05 06:06:06;;;;;;;8.00;5.32;;;7.40;71.50;;;;;;5095538;28;20034;-72
2022/03/05 06:08:32;;;;;;;8.88;5.88;;;7.40;71.00;;;;;;5095504;28;20123;-69
2022/03/05 06:10:58;;;;;;;8.48;5.63;;;7.40;70.20;;;;;;5095711;28;20107;-72
2022/03/05 06:13:24;;;;;;;9.32;6.07;;;7.40;69.60;;;;;;5095585;28;20036;-74
2022/03/05 06:15:50;;;;;;;9.35;6.35;;;7.50;69.70;;;;;;5094656;28;20060;-73
2022/03/05 06:18:20;;;;;;;10.48;6.07;;;7.50;69.40;;;;;;5093250;28;20057;-71
2022/03/05 06:20:46;;;;;;;10.68;6.18;;;7.50;68.90;;;;;;5094394;28;20366;-75
2022/03/05 06:23:12;;;;;;;9.07;6.13;;;7.50;68.10;;;;;;5095228;28;20028;-69
2022/03/05 06:25:37;;;;;;;10.45;6.20;;;7.60;68.50;;;;;;5094988;28;20032;-67
2022/03/05 06:28:03;;;;;;;7.97;5.20;;;7.70;68.20;;;;;;5094943;28;20024;-73
2022/03/05 06:30:29;;;;;;;9.75;6.10;;;7.80;67.20;;;;;;5094743;28;20047;-73
2022/03/05 06:32:55;;;;;;;8.73;5.50;;;7.70;66.80;;;;;;5094853;28;20024;-73
2022/03/05 06:35:20;;;;;;;9.85;6.20;;;7.70;66.30;;;;;;5095142;28;20032;-76
2022/03/05 06:37:46;;;;;;;10.48;6.05;;;7.70;65.70;;;;;;5094881;28;20024;-75
2022/03/05 06:40:13;;;;;;;10.88;6.30;;;7.70;65.40;;;;;;5094774;28;20024;-74
2022/03/05 06:42:39;;;;;;;11.52;6.00;;;7.70;64.70;;;;;;5094787;28;20028;-73
2022/03/05 06:45:08;;;;;;;9.63;5.90;;;7.70;64.40;;;;;;5094329;28;20036;-74
2022/03/05 06:47:34;;;;;;;10.93;6.13;;;7.70;64.80;;;;;;5093749;28;20073;-74
2022/03/05 06:50:00;;;;;;;8.95;6.20;;;7.70;64.10;;;;;;5094664;28;20397;-74
2022/03/05 06:52:26;;;;;;;10.73;6.00;;;7.60;63.90;;;;;;5094673;28;20073;-74
2022/03/05 06:54:52;;;;;;;10.93;6.45;;;7.60;63.60;;;;;;5094588;28;20404;-73
2022/03/05 06:57:18;;;;;;;12.52;6.80;;;7.60;63.30;;;;;;5093114;28;20035;-71
2022/03/05 06:59:43;;;;;;;11.20;6.53;;;7.60;62.40;;;;;;5094230;28;20028;-75
2022/03/05 07:02:09;;;;;;;10.70;6.30;;;7.60;62.40;;;;;;5094075;28;20393;-75
2022/03/05 07:04:35;;;;;;;10.63;6.65;;;7.70;62.80;;;;;;5093985;28;20073;-74
2022/03/05 07:07:00;;;;;;;9.77;7.00;;;7.70;62.30;;;;;;5093667;28;20107;-64
2022/03/05 07:09:26;;;;;;;11.23;6.75;;;7.80;61.30;;;;;;5092151;28;20051;-65
2022/03/05 07:11:52;;;;;;;12.63;7.25;;;7.80;60.80;;;;;;5093789;28;20034;-64
2022/03/05 07:14:17;;;;;;;10.88;6.80;;;7.90;60.00;;;;;;5093709;28;20099;-65
2022/03/05 07:16:43;;;;;;;12.00;7.13;;;8.00;59.70;;;;;;5093572;28;20103;-69
2022/03/05 07:19:09;;;;;;;11.80;6.57;;;8.10;59.60;;;;;;5093376;28;20350;-68
2022/03/05 07:21:34;;;;;;;11.32;6.65;;;8.20;59.10;;;;;;5093374;28;20052;-68
2022/03/05 07:24:00;;;;;;;9.77;6.40;;;8.40;58.60;;;;;;5093318;28;20020;-67
2022/03/05 07:26:26;;;;;;;12.43;6.72;;;8.50;57.70;;;;;;5093194;28;20070;-67
2022/03/05 07:28:52;;;;;;;13.70;7.03;;;8.60;56.60;;;;;;5093271;28;20020;-71
2022/03/05 07:31:17;;;;;;;11.65;7.30;;;8.60;55.50;;;;;;5093101;28;20032;-75
2022/03/05 07:33:44;;;;;;;11.43;7.57;;;8.70;55.40;;;;;;5093303;28;20360;-76
2022/03/05 07:36:09;;;;;;;11.88;7.05;;;8.80;54.60;;;;;;5093054;28;20027;-73
2022/03/05 07:38:35;;;;;;;12.80;7.25;;;8.90;55.10;;;;;;5092962;28;20020;-75
2022/03/05 07:41:01;;;;;;;10.02;6.82;;;9.00;54.70;;;;;;5091663;28;20377;-78
2022/03/05 07:43:28;;;;;;;13.27;6.80;;;9.10;54.00;;;;;;5092693;28;20034;-73
2022/03/05 07:45:57;;;;;;;13.18;7.43;;;9.10;53.70;;;;;;5093338;28;20032;-72
2022/03/05 07:48:23;;;;;;;12.20;6.93;;;9.20;53.80;;;;;;5092254;28;20044;-71
2022/03/05 07:50:51;;;;;;;11.98;6.68;;;9.20;52.90;;;;;;5093229;28;20389;-77
2022/03/05 07:53:17;;;;;;;11.38;6.55;;;9.30;53.40;;;;;;5093654;28;20035;-77
2022/03/05 07:55:43;;;;;;;15.43;6.75;;;9.30;51.70;;;;;;5093264;28;20046;-77
2022/03/05 07:58:09;;;;;;;11.70;6.85;;;9.30;51.60;;;;;;5093822;28;20028;-72
2022/03/05 08:00:35;;;;;;;11.70;6.68;;;9.30;51.80;;;;;;5092537;28;20039;-74
2022/03/05 08:03:01;;;;;;;13.40;7.53;;;9.30;50.80;;;;;;5092577;28;20097;-67
2022/03/05 08:05:27;;;;;;;11.80;7.20;;;9.30;51.70;;;;;;5092415;28;20457;-76
2022/03/05 08:07:55;;;;;;;13.80;7.03;;;9.40;50.90;;;;;;5091171;28;20381;-70
2022/03/05 08:10:21;;;;;;;11.63;7.30;;;9.40;50.30;;;;;;5092298;28;20048;-68
2022/03/05 08:12:49;;;;;;;13.77;6.68;;;9.50;50.50;;;;;;5092680;28;20032;-71
2022/03/05 08:15:14;;;;;;;11.05;6.85;;;9.50;49.60;;;;;;5092627;28;20024;-73
2022/03/05 08:17:57;;;;;;;14.98;7.38;;;9.50;49.40;;;;;;5092426;28;20027;-71
2022/03/05 08:20:25;;;;;;;12.10;7.35;;;9.50;48.90;;;;;;5092399;28;20020;-74
2022/03/05 08:22:51;;;;;;;13.43;7.43;;;9.50;49.60;;;;;;5092485;28;20449;-71
2022/03/05 08:25:17;;;;;;;11.45;6.70;;;9.60;49.70;;;;;;5092336;28;20021;-72
2022/03/05 08:27:43;;;;;;;16.58;7.00;;;9.60;49.20;;;;;;5092471;28;20532;-72
2022/03/05 08:30:11;;;;;;;11.80;6.70;;;9.60;49.10;;;;;;5092035;28;20138;-72
2022/03/05 08:32:37;;;;;;;12.00;7.57;;;9.60;47.90;;;;;;5095080;28;20020;-74
2022/03/05 08:35:05;;;;;;;12.57;7.82;;;9.70;47.50;;;;;;5102118;28;20341;-72
2022/03/05 08:37:30;;;;;;;14.23;7.30;;;9.70;47.00;;;;;;5100084;28;20031;-76
2022/03/05 08:39:57;;;;;;;12.90;7.82;;;9.70;47.00;;;;;;5112389;28;20032;-75
2022/03/05 08:42:23;;;;;;;17.23;7.07;;;9.70;46.20;;;;;;5112400;28;20032;-74
2022/03/05 08:44:49;;;;;;;13.00;7.72;;;9.70;45.60;;;;;;5112661;28;20464;-72
2022/03/05 08:47:15;;;;;;;15.05;7.45;;;9.80;45.40;;;;;;5112363;28;20030;-72
2022/03/05 08:49:41;;;;;;;15.98;8.00;;;9.80;44.90;;;;;;5103603;28;20102;-71
2022/03/05 08:52:08;;;;;;;12.60;7.13;;;9.80;45.20;;;;;;5092840;28;20043;-72
2022/03/05 08:54:34;;;;;;;16.98;7.95;;;9.80;43.20;;;;;;5091364;28;20035;-73
2022/03/05 08:57:00;;;;;;;15.48;8.27;;;9.90;42.40;;;;;;5091115;28;20473;-72
2022/03/05 08:59:26;;;;;;;14.48;6.95;;;9.90;42.70;;;;;;5092477;28;20088;-70
2022/03/05 09:01:51;;;;;;;13.13;8.02;;;10.00;41.50;;;;;;5092945;28;20029;-71
2022/03/05 09:04:17;;;;;;;13.40;7.32;;;10.00;40.80;;;;;;5092644;28;20145;-71
2022/03/05 09:06:43;;;;;;;15.15;7.32;;;10.10;40.90;;;;;;5092781;28;20076;-73
2022/03/05 09:09:09;;;;;;;13.95;7.40;;;10.10;39.80;;;;;;5090958;28;20055;-72
2022/03/05 09:11:37;;;;;;;13.57;8.10;;;10.10;39.90;;;;;;5096740;28;20038;-71
2022/03/05 09:14:04;;;;;;;13.25;7.90;;;10.10;39.80;;;;;;5101092;28;20461;-73
2022/03/05 09:16:30;;;;;;;14.02;7.90;;;10.20;39.70;;;;;;5110988;28;20079;-71
2022/03/05 09:18:56;;;;;;;11.93;7.35;;;10.20;39.80;;;;;;5115747;28;20020;-72
2022/03/05 09:21:21;;;;;;;12.73;7.97;;;10.30;40.20;;;;;;5110625;28;20100;-73
2022/03/05 09:23:50;;;;;;;12.82;6.88;;;10.40;40.10;;;;;;5116715;28;20380;-72
2022/03/05 09:26:16;;;;;;;11.73;7.53;;;10.40;40.00;;;;;;5117191;28;20024;-70
2022/03/05 09:28:42;;;;;;;11.25;7.63;;;10.40;39.60;;;;;;5115262;28;20028;-70
2022/03/05 09:31:08;;;;;;;11.10;6.63;;;10.50;39.90;;;;;;5116655;28;20031;-72
2022/03/05 09:33:34;;;;;;;15.70;7.97;;;10.60;39.70;;;;;;5116604;28;20020;-73
2022/03/05 09:35:59;;;;;;;11.10;7.15;;;10.60;39.50;;;;;;5116420;27;20028;-69
2022/03/05 09:38:25;;;;;;;14.02;7.40;;;10.70;39.40;;;;;;5112561;22;20483;-69
2022/03/05 09:40:52;;;;;;;13.90;7.75;;;10.70;38.90;;;;;;5015891;28;20042;-72
2022/03/05 09:43:19;;;;;;;13.68;7.25;;;10.80;38.70;;;;;;5016102;28;20034;-73
2022/03/05 09:45:45;;;;;;;15.63;7.35;;;10.80;39.10;;;;;;5016111;28;20471;-74
2022/03/05 09:48:14;;;;;;;14.43;8.00;;;10.90;39.20;;;;;;5015864;28;20030;-72
2022/03/05 09:50:40;;;;;;;13.55;7.65;;;11.00;39.10;;;;;;5015771;28;20044;-71
2022/03/05 09:53:05;;;;;;;15.48;8.68;;;11.00;38.60;;;;;;5016039;28;20034;-72
2022/03/05 09:55:31;;;;;;;12.43;8.25;;;11.10;38.50;;;;;;5019441;28;20030;-76
2022/03/05 09:57:57;;;;;;;14.85;7.43;;;11.10;38.00;;;;;;5035358;28;20458;-75
2022/03/05 10:00:23;;;;;;;11.35;7.13;;;11.10;38.10;;;;;;5035429;28;20146;-71
2022/03/05 10:02:49;;;;;;;13.18;6.95;;;11.20;37.80;;;;;;5035751;28;20026;-70
2022/03/05 10:05:26;;;;;;;12.95;7.20;;;11.30;38.10;;;;;;5035375;28;20026;-71
2022/03/05 10:08:10;;;;;;;11.88;7.20;;;11.30;37.60;;;;;;5017209;28;20030;-71
2022/03/05 10:11:05;;;;;;;9.10;5.70;;;11.40;37.50;;;;;;5017033;28;20187;-72
2022/03/05 10:13:32;;;;;;;11.85;7.28;;;11.50;36.90;;;;;;5032896;28;20033;-71
2022/03/05 10:16:06;;;;;;;12.00;7.28;;;11.60;37.00;;;;;;5035226;28;20017;-71
2022/03/05 10:18:34;;;;;;;13.13;7.55;;;11.60;35.90;;;;;;5035194;28;20419;-71
2022/03/05 10:21:02;;;;;;;11.95;7.18;;;11.70;37.20;;;;;;5033682;28;20021;-71
2022/03/05 10:23:33;;;;;;;12.75;7.22;;;11.70;36.90;;;;;;5035267;28;20095;-72
2022/03/05 10:26:00;;;;;;;14.50;8.40;;;11.80;36.40;;;;;;5035108;28;20355;-70
2022/03/05 10:28:29;;;;;;;14.80;8.23;;;11.80;36.20;;;;;;5034722;28;20088;-71
2022/03/05 10:31:09;;;;;;;10.70;6.95;;;11.90;36.40;;;;;;5034838;28;20374;-72
2022/03/05 10:33:37;;;;;;;13.70;7.72;;;11.90;36.20;;;;;;5034646;28;20021;-71
2022/03/05 10:36:20;;;;;;;12.48;7.53;;;12.10;37.20;;;;;;5034688;28;20466;-71
2022/03/05 10:39:00;;;;;;;11.97;7.40;;;12.20;36.00;;;;;;5034499;28;20477;-72
2022/03/05 10:41:40;;;;;;;13.45;6.97;;;12.20;34.80;;;;;;5034629;28;20036;-72
2022/03/05 10:44:06;;;;;;;14.25;7.38;;;12.20;35.70;;;;;;5034425;28;20021;-70
2022/03/05 10:46:42;;;;;;;13.45;8.10;;;12.30;35.30;;;;;;5034054;28;20109;-70
2022/03/05 10:49:31;;;;;;;12.52;7.50;;;12.40;34.80;;;;;;5034103;28;20513;-71
2022/03/05 10:52:02;;;;;;;10.75;7.25;;;12.40;34.80;;;;;;5034098;28;20048;-72
2022/03/05 10:54:35;;;;;;;12.07;7.63;;;12.50;34.40;;;;;;5016151;28;20095;-71
2022/03/05 10:57:08;;;;;;;14.77;7.77;;;12.50;34.10;;;;;;5035109;28;20022;-72
2022/03/05 10:59:46;;;;;;;20.00;13.40;;;12.60;34.60;;;;;;5016707;28;20344;-71
2022/03/05 11:02:14;;;;;;;13.30;7.25;;;12.70;34.70;;;;;;5035884;28;20027;-72
2022/03/05 11:04:42;;;;;;;12.30;7.53;;;12.80;33.90;;;;;;5017772;28;20030;-71
2022/03/05 11:07:09;;;;;;;11.52;7.25;;;12.80;34.50;;;;;;5018379;28;20024;-72
2022/03/05 11:09:36;;;;;;;12.02;7.25;;;12.80;33.80;;;;;;5017287;28;20107;-72
2022/03/05 11:12:03;;;;;;;10.52;6.75;;;12.90;33.80;;;;;;5017461;28;20025;-71
2022/03/05 11:14:29;;;;;;;9.98;6.68;;;12.90;33.30;;;;;;5035265;28;20029;-72
2022/03/05 11:16:56;;;;;;;11.95;7.15;;;13.00;33.80;;;;;;5000754;28;20052;-72
2022/03/05 11:19:23;;;;;;;14.50;7.63;;;13.10;33.70;;;;;;5035382;28;20036;-72
2022/03/05 11:21:50;;;;;;;10.43;6.88;;;13.20;33.80;;;;;;5017540;28;20113;-72
2022/03/05 11:24:19;;;;;;;9.73;6.78;;;13.30;33.90;;;;;;5018566;28;20025;-70
2022/03/05 11:26:51;;;;;;;11.30;7.63;;;13.30;34.20;;;;;;5034780;28;20028;-71
2022/03/05 11:29:19;;;;;;;11.43;7.00;;;13.40;33.90;;;;;;5010430;28;20030;-71
2022/03/05 11:31:47;;;;;;;10.27;7.45;;;13.50;33.90;;;;;;5002882;28;20037;-73
2022/03/05 11:34:15;;;;;;;10.95;7.07;;;13.60;34.20;;;;;;4977889;28;20030;-72
2022/03/05 11:36:42;;;;;;;12.13;7.20;;;13.60;33.50;;;;;;4994439;28;20030;-71
2022/03/05 11:39:26;;;;;;;12.20;7.65;;;13.60;33.50;;;;;;5029129;28;20103;-72
2022/03/05 11:42:01;;;;;;;11.57;7.05;;;13.60;32.30;;;;;;5033619;28;20021;-72
2022/03/05 11:44:28;;;;;;;12.82;7.10;;;13.60;33.70;;;;;;5015491;28;20029;-77
2022/03/05 11:47:19;;;;;;;13.18;7.10;;;13.70;33.80;;;;;;5033448;28;20045;-75
2022/03/05 11:50:00;;;;;;;11.25;6.93;;;13.80;32.20;;;;;;5032876;28;20041;-78
2022/03/05 11:52:38;;;;;;;11.35;7.45;;;13.80;32.10;;;;;;5033386;28;20060;-75
2022/03/05 11:55:14;;;;;;;13.27;8.13;;;13.80;33.50;;;;;;5033716;28;20029;-73
2022/03/05 11:58:06;;;;;;;15.05;7.53;;;13.80;33.30;;;;;;5015547;28;20052;-77
2022/03/05 12:00:33;;;;;;;13.85;7.15;;;13.90;32.60;;;;;;5033255;28;20034;-78
2022/03/05 12:03:01;;;;;;;12.13;7.53;;;14.10;34.20;;;;;;5033211;28;20028;-75
2022/03/05 12:05:33;;;;;;;13.05;6.88;;;14.20;33.60;;;;;;5033481;28;20471;-76
2022/03/05 12:07:59;;;;;;;12.93;7.50;;;14.30;33.40;;;;;;5033384;28;20024;-72
2022/03/05 12:10:26;;;;;;;10.32;7.15;;;14.40;34.10;;;;;;5034359;28;20037;-77
2022/03/05 12:12:54;;;;;;;14.55;7.50;;;14.40;33.70;;;;;;5048272;28;20056;-75
2022/03/05 12:15:27;;;;;;;10.15;6.70;;;14.50;33.80;;;;;;5050143;28;20025;-73
2022/03/05 12:17:54;;;;;;;12.60;8.00;;;14.50;33.40;;;;;;5036458;28;20044;-77
2022/03/05 12:20:27;;;;;;;13.25;7.40;;;14.60;33.10;;;;;;5034148;28;20075;-75
2022/03/05 12:22:58;;;;;;;10.57;6.40;;;14.50;32.80;;;;;;5033167;28;20424;-73
2022/03/05 12:25:26;;;;;;;12.25;7.20;;;14.60;32.80;;;;;;5015614;28;20335;-73
2022/03/05 12:27:52;;;;;;;10.38;6.68;;;14.60;33.10;;;;;;5033261;28;20100;-77
2022/03/05 12:30:20;;;;;;;15.02;7.00;;;14.60;32.70;;;;;;5033222;28;20091;-77
2022/03/05 12:32:47;;;;;;;11.38;6.95;;;14.60;32.50;;;;;;5020298;28;20022;-73
2022/03/05 12:35:19;;;;;;;12.15;6.78;;;14.60;32.10;;;;;;5033620;28;20029;-76
2022/03/05 12:37:45;;;;;;;10.25;6.68;;;14.60;32.80;;;;;;5015387;28;20474;-72
2022/03/05 12:40:12;;;;;;;12.10;7.70;;;14.60;32.50;;;;;;5032783;28;20156;-77
2022/03/05 12:42:47;;;;;;;12.75;6.57;;;14.60;32.60;;;;;;5033191;28;20418;-72
2022/03/05 12:45:24;;;;;;;10.65;6.78;;;14.70;33.30;;;;;;5032825;28;20060;-77